sensor_id;sensor_type;location;lat;lon;timestamp;temperature;humidity
41668;DHT22;27356;50.920;5.350;2022-07-11T00:02:04;18.50;99.70
41668;DHT22;27356;50.920;5.350;2022-07-11T00:04:30;18.60;99.50
41668;DHT22;27356;50.920;5.350;2022-07-11T00:06:55;18.50;99.60
41668;DHT22;27356;50.920;5.350;2022-07-11T00:09:21;18.50;99.90
41668;DHT22;27356;50.920;5.350;2022-07-11T00:11:47;18.40;99.90
41668;DHT22;27356;50.920;5.350;2022-07-11T00:14:13;18.50;99.90
41668;DHT22;27356;50.920;5.350;2022-07-11T00:16:39;18.40;99.90
41668;DHT22;27356;50.920;5.350;2022-07-11T00:19:04;18.40;99.90
41668;DHT22;27356;50.920;5.350;2022-07-11T00:21:31;18.40;99.90
41668;DHT22;27356;50.920;5.350;2022-07-11T00:23:57;18.30;99.90
41668;DHT22;27356;50.920;5.350;2022-07-11T00:26:22;18.20;99.90
41668;DHT22;27356;50.920;5.350;2022-07-11T00:28:48;18.10;99.90
41668;DHT22;27356;50.920;5.350;2022-07-11T00:31:13;17.90;99.90
41668;DHT22;27356;50.920;5.350;2022-07-11T00:33:39;17.90;99.90
41668;DHT22;27356;50.920;5.350;2022-07-11T00:36:05;17.80;99.90
41668;DHT22;27356;50.920;5.350;2022-07-11T00:38:31;17.80;99.90
41668;DHT22;27356;50.920;5.350;2022-07-11T00:40:56;17.80;99.90
41668;DHT22;27356;50.920;5.350;2022-07-11T00:43:32;17.70;99.90
41668;DHT22;27356;50.920;5.350;2022-07-11T00:45:58;17.70;99.90
41668;DHT22;27356;50.920;5.350;2022-07-11T00:48:24;17.60;99.90
41668;DHT22;27356;50.920;5.350;2022-07-11T00:50:50;17.60;99.90
41668;DHT22;27356;50.920;5.350;2022-07-11T00:53:15;17.50;99.90
41668;DHT22;27356;50.920;5.350;2022-07-11T00:55:41;17.50;99.90
41668;DHT22;27356;50.920;5.350;2022-07-11T00:58:07;17.40;99.90
41668;DHT22;27356;50.920;5.350;2022-07-11T01:00:32;17.30;99.90
41668;DHT22;27356;50.920;5.350;2022-07-11T01:02:58;17.40;99.90
41668;DHT22;27356;50.920;5.350;2022-07-11T01:05:24;17.40;99.90
41668;DHT22;27356;50.920;5.350;2022-07-11T01:07:49;17.40;99.90
41668;DHT22;27356;50.920;5.350;2022-07-11T01:10:15;17.30;99.90
41668;DHT22;27356;50.920;5.350;2022-07-11T01:12:40;17.30;99.90
41668;DHT22;27356;50.920;5.350;2022-07-11T01:15:06;17.30;99.90
41668;DHT22;27356;50.920;5.350;2022-07-11T01:17:33;17.20;99.90
41668;DHT22;27356;50.920;5.350;2022-07-11T01:19:58;17.20;99.90
41668;DHT22;27356;50.920;5.350;2022-07-11T01:22:25;17.10;99.90
41668;DHT22;27356;50.920;5.350;2022-07-11T01:24:53;17.10;99.90
41668;DHT22;27356;50.920;5.350;2022-07-11T01:27:19;17.00;99.90
41668;DHT22;27356;50.920;5.350;2022-07-11T01:29:44;17.00;99.90
41668;DHT22;27356;50.920;5.350;2022-07-11T01:32:10;16.90;99.90
41668;DHT22;27356;50.920;5.350;2022-07-11T01:34:36;16.90;99.90
41668;DHT22;27356;50.920;5.350;2022-07-11T01:37:01;16.80;99.90
41668;DHT22;27356;50.920;5.350;2022-07-11T01:39:27;16.80;99.90
41668;DHT22;27356;50.920;5.350;2022-07-11T01:41:57;16.70;99.90
41668;DHT22;27356;50.920;5.350;2022-07-11T01:44:23;16.70;99.90
41668;DHT22;27356;50.920;5.350;2022-07-11T01:46:49;16.70;99.90
41668;DHT22;27356;50.920;5.350;2022-07-11T01:49:14;16.60;99.90
41668;DHT22;27356;50.920;5.350;2022-07-11T01:51:40;16.60;99.90
41668;DHT22;27356;50.920;5.350;2022-07-11T01:54:06;16.50;99.90
41668;DHT22;27356;50.920;5.350;2022-07-11T01:56:31;16.50;99.90
41668;DHT22;27356;50.920;5.350;2022-07-11T01:58:58;16.50;99.90
41668;DHT22;27356;50.920;5.350;2022-07-11T02:01:24;16.40;99.90
41668;DHT22;27356;50.920;5.350;2022-07-11T02:03:50;16.50;99.90
41668;DHT22;27356;50.920;5.350;2022-07-11T02:06:15;16.40;99.90
41668;DHT22;27356;50.920;5.350;2022-07-11T02:08:41;16.50;99.90
41668;DHT22;27356;50.920;5.350;2022-07-11T02:11:06;16.40;99.90
41668;DHT22;27356;50.920;5.350;2022-07-11T02:13:32;16.30;99.90
41668;DHT22;27356;50.920;5.350;2022-07-11T02:15:58;16.30;99.90
41668;DHT22;27356;50.920;5.350;2022-07-11T02:18:24;16.30;99.90
41668;DHT22;27356;50.920;5.350;2022-07-11T02:20:49;16.30;99.90
41668;DHT22;27356;50.920;5.350;2022-07-11T02:23:16;16.30;99.90
41668;DHT22;27356;50.920;5.350;2022-07-11T02:25:42;16.30;99.90
41668;DHT22;27356;50.920;5.350;2022-07-11T02:28:08;16.20;99.90
41668;DHT22;27356;50.920;5.350;2022-07-11T02:30:34;16.20;99.90
41668;DHT22;27356;50.920;5.350;2022-07-11T02:32:59;16.20;99.90
41668;DHT22;27356;50.920;5.350;2022-07-11T02:35:25;16.20;99.90
41668;DHT22;27356;50.920;5.350;2022-07-11T02:37:51;16.20;99.90
41668;DHT22;27356;50.920;5.350;2022-07-11T02:40:17;16.20;99.90
41668;DHT22;27356;50.920;5.350;2022-07-11T02:42:42;16.10;99.90
41668;DHT22;27356;50.920;5.350;2022-07-11T02:45:08;16.10;99.90
41668;DHT22;27356;50.920;5.350;2022-07-11T02:47:38;16.10;99.90
41668;DHT22;27356;50.920;5.350;2022-07-11T02:50:08;16.10;99.90
41668;DHT22;27356;50.920;5.350;2022-07-11T02:52:34;16.00;99.90
41668;DHT22;27356;50.920;5.350;2022-07-11T02:55:00;16.00;99.90
41668;DHT22;27356;50.920;5.350;2022-07-11T02:57:25;15.90;99.90
41668;DHT22;27356;50.920;5.350;2022-07-11T02:59:51;16.00;99.90
41668;DHT22;27356;50.920;5.350;2022-07-11T03:02:16;15.90;99.90
41668;DHT22;27356;50.920;5.350;2022-07-11T03:04:42;15.90;99.90
41668;DHT22;27356;50.920;5.350;2022-07-11T03:07:07;15.80;99.90
41668;DHT22;27356;50.920;5.350;2022-07-11T03:09:33;15.90;99.90
41668;DHT22;27356;50.920;5.350;2022-07-11T03:11:58;15.80;99.90
41668;DHT22;27356;50.920;5.350;2022-07-11T03:14:24;15.90;99.90
41668;DHT22;27356;50.920;5.350;2022-07-11T03:16:50;15.90;99.90
41668;DHT22;27356;50.920;5.350;2022-07-11T03:19:16;15.90;99.90
41668;DHT22;27356;50.920;5.350;2022-07-11T03:21:41;15.90;99.90
41668;DHT22;27356;50.920;5.350;2022-07-11T03:24:07;15.90;99.90
41668;DHT22;27356;50.920;5.350;2022-07-11T03:26:32;15.90;99.90
41668;DHT22;27356;50.920;5.350;2022-07-11T03:28:58;15.90;99.90
41668;DHT22;27356;50.920;5.350;2022-07-11T03:31:24;15.90;99.90
41668;DHT22;27356;50.920;5.350;2022-07-11T03:33:49;15.90;99.90
41668;DHT22;27356;50.920;5.350;2022-07-11T03:36:15;15.90;99.90
41668;DHT22;27356;50.920;5.350;2022-07-11T03:38:40;15.90;99.90
41668;DHT22;27356;50.920;5.350;2022-07-11T03:41:06;15.90;99.90
41668;DHT22;27356;50.920;5.350;2022-07-11T03:43:31;15.80;99.90
41668;DHT22;27356;50.920;5.350;2022-07-11T03:45:57;15.80;99.90
41668;DHT22;27356;50.920;5.350;2022-07-11T03:48:23;15.80;99.90
41668;DHT22;27356;50.920;5.350;2022-07-11T03:50:48;15.90;99.90
41668;DHT22;27356;50.920;5.350;2022-07-11T03:53:14;15.90;99.90
41668;DHT22;27356;50.920;5.350;2022-07-11T03:55:39;15.90;99.90
41668;DHT22;27356;50.920;5.350;2022-07-11T03:58:05;15.90;99.90
41668;DHT22;27356;50.920;5.350;2022-07-11T04:00:31;15.90;99.90
41668;DHT22;27356;50.920;5.350;2022-07-11T04:02:56;16.00;99.90
41668;DHT22;27356;50.920;5.350;2022-07-11T04:05:23;16.00;99.90
41668;DHT22;27356;50.920;5.350;2022-07-11T04:07:48;16.00;99.90
41668;DHT22;27356;50.920;5.350;2022-07-11T04:10:14;16.00;99.90
41668;DHT22;27356;50.920;5.350;2022-07-11T04:12:42;16.10;99.90
41668;DHT22;27356;50.920;5.350;2022-07-11T04:15:08;16.10;99.90
41668;DHT22;27356;50.920;5.350;2022-07-11T04:17:34;16.10;99.90
41668;DHT22;27356;50.920;5.350;2022-07-11T04:19:59;16.20;99.90
41668;DHT22;27356;50.920;5.350;2022-07-11T04:22:25;16.20;99.90
41668;DHT22;27356;50.920;5.350;2022-07-11T04:24:51;16.00;99.90
41668;DHT22;27356;50.920;5.350;2022-07-11T04:27:17;16.10;99.90
41668;DHT22;27356;50.920;5.350;2022-07-11T04:29:42;16.30;99.90
41668;DHT22;27356;50.920;5.350;2022-07-11T04:32:08;16.50;99.90
41668;DHT22;27356;50.920;5.350;2022-07-11T04:34:33;16.60;99.90
41668;DHT22;27356;50.920;5.350;2022-07-11T04:36:59;16.70;99.90
41668;DHT22;27356;50.920;5.350;2022-07-11T04:39:24;16.90;99.90
41668;DHT22;27356;50.920;5.350;2022-07-11T04:41:50;16.80;99.90
41668;DHT22;27356;50.920;5.350;2022-07-11T04:44:16;16.80;99.90
41668;DHT22;27356;50.920;5.350;2022-07-11T04:46:41;17.00;99.90
41668;DHT22;27356;50.920;5.350;2022-07-11T04:49:07;17.00;99.90
41668;DHT22;27356;50.920;5.350;2022-07-11T04:51:32;17.10;99.90
41668;DHT22;27356;50.920;5.350;2022-07-11T04:53:58;17.20;99.90
41668;DHT22;27356;50.920;5.350;2022-07-11T04:56:23;17.30;99.90
41668;DHT22;27356;50.920;5.350;2022-07-11T04:58:49;17.20;99.90
41668;DHT22;27356;50.920;5.350;2022-07-11T05:01:15;17.30;99.90
41668;DHT22;27356;50.920;5.350;2022-07-11T05:03:40;17.50;99.90
41668;DHT22;27356;50.920;5.350;2022-07-11T05:06:06;17.50;99.90
41668;DHT22;27356;50.920;5.350;2022-07-11T05:08:31;17.70;99.90
41668;DHT22;27356;50.920;5.350;2022-07-11T05:11:04;17.80;99.90
41668;DHT22;27356;50.920;5.350;2022-07-11T05:13:30;18.10;99.90
41668;DHT22;27356;50.920;5.350;2022-07-11T05:15:56;18.00;99.90
41668;DHT22;27356;50.920;5.350;2022-07-11T05:18:21;18.00;99.90
41668;DHT22;27356;50.920;5.350;2022-07-11T05:20:47;18.10;99.90
41668;DHT22;27356;50.920;5.350;2022-07-11T05:23:14;18.20;99.90
41668;DHT22;27356;50.920;5.350;2022-07-11T05:25:40;18.10;99.90
41668;DHT22;27356;50.920;5.350;2022-07-11T05:28:05;18.20;99.90
41668;DHT22;27356;50.920;5.350;2022-07-11T05:30:31;18.10;99.90
41668;DHT22;27356;50.920;5.350;2022-07-11T05:32:56;18.10;99.90
41668;DHT22;27356;50.920;5.350;2022-07-11T05:35:22;18.00;99.90
41668;DHT22;27356;50.920;5.350;2022-07-11T05:37:48;17.90;99.90
41668;DHT22;27356;50.920;5.350;2022-07-11T05:40:13;18.00;99.90
41668;DHT22;27356;50.920;5.350;2022-07-11T05:42:39;18.20;99.90
41668;DHT22;27356;50.920;5.350;2022-07-11T05:45:05;18.40;99.90
41668;DHT22;27356;50.920;5.350;2022-07-11T05:47:30;18.60;99.90
41668;DHT22;27356;50.920;5.350;2022-07-11T05:49:56;19.00;99.90
41668;DHT22;27356;50.920;5.350;2022-07-11T05:52:21;19.10;99.90
41668;DHT22;27356;50.920;5.350;2022-07-11T05:54:47;19.30;99.90
41668;DHT22;27356;50.920;5.350;2022-07-11T05:57:12;19.20;99.90
41668;DHT22;27356;50.920;5.350;2022-07-11T05:59:38;19.20;99.90
41668;DHT22;27356;50.920;5.350;2022-07-11T06:02:04;19.30;99.90
41668;DHT22;27356;50.920;5.350;2022-07-11T06:04:31;19.50;99.90
41668;DHT22;27356;50.920;5.350;2022-07-11T06:06:57;19.50;99.90
41668;DHT22;27356;50.920;5.350;2022-07-11T06:09:22;19.60;99.90
41668;DHT22;27356;50.920;5.350;2022-07-11T06:11:48;19.70;99.90
41668;DHT22;27356;50.920;5.350;2022-07-11T06:14:14;20.00;99.90
41668;DHT22;27356;50.920;5.350;2022-07-11T06:16:40;20.10;99.90
41668;DHT22;27356;50.920;5.350;2022-07-11T06:19:05;20.60;99.90
41668;DHT22;27356;50.920;5.350;2022-07-11T06:21:31;20.80;99.90
41668;DHT22;27356;50.920;5.350;2022-07-11T06:23:56;20.80;99.90
41668;DHT22;27356;50.920;5.350;2022-07-11T06:26:25;20.40;99.90
41668;DHT22;27356;50.920;5.350;2022-07-11T06:28:50;20.20;99.90
41668;DHT22;27356;50.920;5.350;2022-07-11T06:31:16;20.10;99.90
41668;DHT22;27356;50.920;5.350;2022-07-11T06:33:42;20.00;99.90
41668;DHT22;27356;50.920;5.350;2022-07-11T06:36:08;20.10;99.90
41668;DHT22;27356;50.920;5.350;2022-07-11T06:38:33;20.30;99.90
41668;DHT22;27356;50.920;5.350;2022-07-11T06:40:59;20.70;99.90
41668;DHT22;27356;50.920;5.350;2022-07-11T06:43:25;20.90;99.90
41668;DHT22;27356;50.920;5.350;2022-07-11T06:45:51;21.00;99.90
41668;DHT22;27356;50.920;5.350;2022-07-11T06:48:16;21.10;99.90
41668;DHT22;27356;50.920;5.350;2022-07-11T06:50:42;20.90;99.90
41668;DHT22;27356;50.920;5.350;2022-07-11T06:53:08;20.90;99.90
41668;DHT22;27356;50.920;5.350;2022-07-11T06:55:33;20.90;99.90
41668;DHT22;27356;50.920;5.350;2022-07-11T06:57:59;20.50;99.90
41668;DHT22;27356;50.920;5.350;2022-07-11T07:00:25;20.80;99.90
41668;DHT22;27356;50.920;5.350;2022-07-11T07:02:54;20.90;99.90
41668;DHT22;27356;50.920;5.350;2022-07-11T07:05:20;21.10;99.90
41668;DHT22;27356;50.920;5.350;2022-07-11T07:07:45;21.10;99.90
41668;DHT22;27356;50.920;5.350;2022-07-11T07:10:11;21.10;99.90
41668;DHT22;27356;50.920;5.350;2022-07-11T07:12:37;21.20;99.90
41668;DHT22;27356;50.920;5.350;2022-07-11T07:15:03;21.40;99.90
41668;DHT22;27356;50.920;5.350;2022-07-11T07:17:29;21.20;99.90
41668;DHT22;27356;50.920;5.350;2022-07-11T07:19:56;21.10;99.90
41668;DHT22;27356;50.920;5.350;2022-07-11T07:22:22;20.90;99.90
41668;DHT22;27356;50.920;5.350;2022-07-11T07:24:47;20.70;99.90
41668;DHT22;27356;50.920;5.350;2022-07-11T07:27:13;20.80;99.90
41668;DHT22;27356;50.920;5.350;2022-07-11T07:29:39;20.90;99.90
41668;DHT22;27356;50.920;5.350;2022-07-11T07:32:05;20.80;99.90
41668;DHT22;27356;50.920;5.350;2022-07-11T07:34:30;21.10;99.90
41668;DHT22;27356;50.920;5.350;2022-07-11T07:36:57;21.30;99.90
41668;DHT22;27356;50.920;5.350;2022-07-11T07:39:23;21.60;99.90
41668;DHT22;27356;50.920;5.350;2022-07-11T07:41:48;21.80;99.10
41668;DHT22;27356;50.920;5.350;2022-07-11T07:44:14;21.50;99.40
41668;DHT22;27356;50.920;5.350;2022-07-11T07:46:39;21.70;99.40
41668;DHT22;27356;50.920;5.350;2022-07-11T07:49:05;21.70;99.40
41668;DHT22;27356;50.920;5.350;2022-07-11T07:51:30;22.10;98.70
41668;DHT22;27356;50.920;5.350;2022-07-11T07:53:56;22.10;98.00
41668;DHT22;27356;50.920;5.350;2022-07-11T07:56:22;22.00;98.20
41668;DHT22;27356;50.920;5.350;2022-07-11T07:58:47;22.00;97.80
41668;DHT22;27356;50.920;5.350;2022-07-11T08:01:13;22.30;97.60
41668;DHT22;27356;50.920;5.350;2022-07-11T08:03:57;22.00;97.70
41668;DHT22;27356;50.920;5.350;2022-07-11T08:06:23;22.10;98.10
41668;DHT22;27356;50.920;5.350;2022-07-11T08:08:48;22.00;97.90
41668;DHT22;27356;50.920;5.350;2022-07-11T08:11:15;22.10;97.90
41668;DHT22;27356;50.920;5.350;2022-07-11T08:13:41;22.20;97.20
41668;DHT22;27356;50.920;5.350;2022-07-11T08:16:07;22.40;96.80
41668;DHT22;27356;50.920;5.350;2022-07-11T08:18:33;22.40;97.20
41668;DHT22;27356;50.920;5.350;2022-07-11T08:20:59;22.20;97.40
41668;DHT22;27356;50.920;5.350;2022-07-11T08:23:25;22.30;96.80
41668;DHT22;27356;50.920;5.350;2022-07-11T08:25:50;21.90;98.20
41668;DHT22;27356;50.920;5.350;2022-07-11T08:28:16;22.30;97.40
41668;DHT22;27356;50.920;5.350;2022-07-11T08:30:41;22.50;96.90
41668;DHT22;27356;50.920;5.350;2022-07-11T08:33:07;22.50;96.80
41668;DHT22;27356;50.920;5.350;2022-07-11T08:35:32;22.50;96.50
41668;DHT22;27356;50.920;5.350;2022-07-11T08:37:58;22.50;96.40
41668;DHT22;27356;50.920;5.350;2022-07-11T08:40:23;22.60;95.90
41668;DHT22;27356;50.920;5.350;2022-07-11T08:42:49;22.40;96.30
41668;DHT22;27356;50.920;5.350;2022-07-11T08:45:15;22.20;96.50
41668;DHT22;27356;50.920;5.350;2022-07-11T08:47:41;22.40;96.60
41668;DHT22;27356;50.920;5.350;2022-07-11T08:50:09;22.30;96.70
41668;DHT22;27356;50.920;5.350;2022-07-11T08:52:34;22.10;97.10
41668;DHT22;27356;50.920;5.350;2022-07-11T08:55:01;22.20;96.80
41668;DHT22;27356;50.920;5.350;2022-07-11T08:57:30;22.00;97.10
41668;DHT22;27356;50.920;5.350;2022-07-11T08:59:56;22.20;96.80
41668;DHT22;27356;50.920;5.350;2022-07-11T09:02:23;22.20;97.00
41668;DHT22;27356;50.920;5.350;2022-07-11T09:04:48;22.20;97.10
41668;DHT22;27356;50.920;5.350;2022-07-11T09:07:14;22.20;96.90
41668;DHT22;27356;50.920;5.350;2022-07-11T09:09:39;22.20;97.00
41668;DHT22;27356;50.920;5.350;2022-07-11T09:12:12;22.30;96.80
41668;DHT22;27356;50.920;5.350;2022-07-11T09:14:39;22.80;95.90
41668;DHT22;27356;50.920;5.350;2022-07-11T09:17:05;22.70;96.30
41668;DHT22;27356;50.920;5.350;2022-07-11T09:19:32;22.80;95.70
41668;DHT22;27356;50.920;5.350;2022-07-11T09:22:02;23.00;95.20
41668;DHT22;27356;50.920;5.350;2022-07-11T09:27:43;23.20;94.80
41668;DHT22;27356;50.920;5.350;2022-07-11T09:30:25;23.40;94.10
41668;DHT22;27356;50.920;5.350;2022-07-11T09:33:05;23.50;93.50
41668;DHT22;27356;50.920;5.350;2022-07-11T09:35:31;23.30;93.60
41668;DHT22;27356;50.920;5.350;2022-07-11T09:37:58;23.40;93.90
41668;DHT22;27356;50.920;5.350;2022-07-11T09:40:27;23.50;93.80
41668;DHT22;27356;50.920;5.350;2022-07-11T09:42:53;23.50;93.60
41668;DHT22;27356;50.920;5.350;2022-07-11T09:45:22;23.70;93.00
41668;DHT22;27356;50.920;5.350;2022-07-11T09:47:50;23.30;93.90
41668;DHT22;27356;50.920;5.350;2022-07-11T09:50:19;23.70;93.90
41668;DHT22;27356;50.920;5.350;2022-07-11T09:55:30;24.30;93.10
41668;DHT22;27356;50.920;5.350;2022-07-11T09:57:56;24.60;92.10
41668;DHT22;27356;50.920;5.350;2022-07-11T10:00:22;24.30;92.30
41668;DHT22;27356;50.920;5.350;2022-07-11T10:02:47;24.50;92.50
41668;DHT22;27356;50.920;5.350;2022-07-11T10:05:14;24.10;92.20
41668;DHT22;27356;50.920;5.350;2022-07-11T10:07:49;24.00;92.50
41668;DHT22;27356;50.920;5.350;2022-07-11T10:10:17;24.00;92.40
41668;DHT22;27356;50.920;5.350;2022-07-11T10:12:43;24.00;92.70
41668;DHT22;27356;50.920;5.350;2022-07-11T10:15:10;24.00;92.50
41668;DHT22;27356;50.920;5.350;2022-07-11T10:17:39;23.90;92.50
41668;DHT22;27356;50.920;5.350;2022-07-11T10:20:13;24.00;92.20
41668;DHT22;27356;50.920;5.350;2022-07-11T10:22:43;24.00;92.20
41668;DHT22;27356;50.920;5.350;2022-07-11T10:25:21;24.50;91.30
41668;DHT22;27356;50.920;5.350;2022-07-11T10:33:05;24.10;92.30
41668;DHT22;27356;50.920;5.350;2022-07-11T10:35:31;24.00;92.20
41668;DHT22;27356;50.920;5.350;2022-07-11T10:37:57;24.10;91.50
41668;DHT22;27356;50.920;5.350;2022-07-11T10:43:14;24.50;91.30
41668;DHT22;27356;50.920;5.350;2022-07-11T10:48:15;24.50;91.60
41668;DHT22;27356;50.920;5.350;2022-07-11T10:50:44;24.50;91.00
41668;DHT22;27356;50.920;5.350;2022-07-11T10:53:10;24.50;91.10
41668;DHT22;27356;50.920;5.350;2022-07-11T10:55:36;24.40;91.50
41668;DHT22;27356;50.920;5.350;2022-07-11T11:00:48;24.30;90.80
41668;DHT22;27356;50.920;5.350;2022-07-11T11:03:15;24.00;91.80
41668;DHT22;27356;50.920;5.350;2022-07-11T11:05:45;23.90;91.80
41668;DHT22;27356;50.920;5.350;2022-07-11T11:10:56;24.00;92.70
41668;DHT22;27356;50.920;5.350;2022-07-11T11:13:21;24.40;91.50
41668;DHT22;27356;50.920;5.350;2022-07-11T11:23:23;24.40;91.00
41668;DHT22;27356;50.920;5.350;2022-07-11T11:25:49;24.30;91.30
41668;DHT22;27356;50.920;5.350;2022-07-11T11:28:21;24.00;92.10
41668;DHT22;27356;50.920;5.350;2022-07-11T11:30:53;24.50;91.40
41668;DHT22;27356;50.920;5.350;2022-07-11T11:33:22;24.40;91.40
41668;DHT22;27356;50.920;5.350;2022-07-11T11:36:00;24.90;90.90
41668;DHT22;27356;50.920;5.350;2022-07-11T11:38:26;25.30;90.80
41668;DHT22;27356;50.920;5.350;2022-07-11T11:40:51;25.50;90.30
41668;DHT22;27356;50.920;5.350;2022-07-11T11:43:18;26.00;89.10
41668;DHT22;27356;50.920;5.350;2022-07-11T11:45:53;26.10;87.10
41668;DHT22;27356;50.920;5.350;2022-07-11T11:50:52;26.30;87.40
41668;DHT22;27356;50.920;5.350;2022-07-11T11:53:18;27.00;86.60
41668;DHT22;27356;50.920;5.350;2022-07-11T11:55:44;26.90;83.80
41668;DHT22;27356;50.920;5.350;2022-07-11T11:58:09;27.20;83.80
41668;DHT22;27356;50.920;5.350;2022-07-11T12:00:35;27.00;83.60
41668;DHT22;27356;50.920;5.350;2022-07-11T12:03:00;26.90;82.80
41668;DHT22;27356;50.920;5.350;2022-07-11T12:05:27;26.80;83.70
41668;DHT22;27356;50.920;5.350;2022-07-11T12:07:56;26.80;85.30
41668;DHT22;27356;50.920;5.350;2022-07-11T12:10:22;26.40;84.30
41668;DHT22;27356;50.920;5.350;2022-07-11T12:12:47;26.50;85.30
41668;DHT22;27356;50.920;5.350;2022-07-11T12:15:25;26.20;85.40
41668;DHT22;27356;50.920;5.350;2022-07-11T12:17:55;26.10;86.00
41668;DHT22;27356;50.920;5.350;2022-07-11T12:20:36;26.60;85.60
41668;DHT22;27356;50.920;5.350;2022-07-11T12:23:06;26.60;84.00
41668;DHT22;27356;50.920;5.350;2022-07-11T12:25:32;26.10;85.90
41668;DHT22;27356;50.920;5.350;2022-07-11T12:28:01;25.90;86.10
41668;DHT22;27356;50.920;5.350;2022-07-11T12:30:27;25.80;85.80
41668;DHT22;27356;50.920;5.350;2022-07-11T12:33:06;25.70;86.90
41668;DHT22;27356;50.920;5.350;2022-07-11T12:35:32;25.50;86.50
41668;DHT22;27356;50.920;5.350;2022-07-11T12:37:57;25.20;86.80
41668;DHT22;27356;50.920;5.350;2022-07-11T12:40:23;25.30;86.90
41668;DHT22;27356;50.920;5.350;2022-07-11T12:42:48;25.80;85.30
41668;DHT22;27356;50.920;5.350;2022-07-11T12:45:14;25.60;85.40
41668;DHT22;27356;50.920;5.350;2022-07-11T12:47:48;25.40;86.10
41668;DHT22;27356;50.920;5.350;2022-07-11T12:50:15;25.90;84.90
41668;DHT22;27356;50.920;5.350;2022-07-11T12:52:42;25.40;86.30
41668;DHT22;27356;50.920;5.350;2022-07-11T12:55:11;26.00;85.50
41668;DHT22;27356;50.920;5.350;2022-07-11T12:57:39;26.40;83.70
41668;DHT22;27356;50.920;5.350;2022-07-11T13:00:19;26.40;84.10
41668;DHT22;27356;50.920;5.350;2022-07-11T13:02:49;26.40;84.10
41668;DHT22;27356;50.920;5.350;2022-07-11T13:05:15;26.40;84.30
41668;DHT22;27356;50.920;5.350;2022-07-11T13:07:41;25.80;85.00
41668;DHT22;27356;50.920;5.350;2022-07-11T13:10:26;25.50;85.20
41668;DHT22;27356;50.920;5.350;2022-07-11T13:13:12;25.50;85.90
41668;DHT22;27356;50.920;5.350;2022-07-11T13:15:38;25.40;86.20
41668;DHT22;27356;50.920;5.350;2022-07-11T13:18:03;25.60;86.40
41668;DHT22;27356;50.920;5.350;2022-07-11T13:20:30;25.80;86.30
41668;DHT22;27356;50.920;5.350;2022-07-11T13:22:56;26.20;83.40
41668;DHT22;27356;50.920;5.350;2022-07-11T13:25:22;25.90;84.70
41668;DHT22;27356;50.920;5.350;2022-07-11T13:27:49;25.60;85.00
41668;DHT22;27356;50.920;5.350;2022-07-11T13:30:15;25.70;85.10
41668;DHT22;27356;50.920;5.350;2022-07-11T13:32:46;25.70;84.90
41668;DHT22;27356;50.920;5.350;2022-07-11T13:35:12;25.90;84.70
41668;DHT22;27356;50.920;5.350;2022-07-11T13:37:39;26.20;83.90
41668;DHT22;27356;50.920;5.350;2022-07-11T13:40:07;26.10;83.50
41668;DHT22;27356;50.920;5.350;2022-07-11T13:42:33;26.00;83.50
41668;DHT22;27356;50.920;5.350;2022-07-11T13:44:59;25.80;84.30
41668;DHT22;27356;50.920;5.350;2022-07-11T13:47:25;25.40;85.60
41668;DHT22;27356;50.920;5.350;2022-07-11T13:49:51;25.20;85.70
41668;DHT22;27356;50.920;5.350;2022-07-11T13:52:16;25.20;86.00
41668;DHT22;27356;50.920;5.350;2022-07-11T13:54:42;25.50;85.20
41668;DHT22;27356;50.920;5.350;2022-07-11T13:57:07;25.20;86.20
41668;DHT22;27356;50.920;5.350;2022-07-11T13:59:33;25.00;86.30
41668;DHT22;27356;50.920;5.350;2022-07-11T14:01:58;24.90;86.30
41668;DHT22;27356;50.920;5.350;2022-07-11T14:04:24;24.60;87.50
41668;DHT22;27356;50.920;5.350;2022-07-11T14:06:50;24.40;88.70
41668;DHT22;27356;50.920;5.350;2022-07-11T14:09:15;24.50;87.80
41668;DHT22;27356;50.920;5.350;2022-07-11T14:11:42;24.40;89.00
41668;DHT22;27356;50.920;5.350;2022-07-11T14:14:08;24.50;89.10
41668;DHT22;27356;50.920;5.350;2022-07-11T14:16:33;24.50;88.20
41668;DHT22;27356;50.920;5.350;2022-07-11T14:18:59;24.50;88.20
41668;DHT22;27356;50.920;5.350;2022-07-11T14:21:33;24.30;88.20
41668;DHT22;27356;50.920;5.350;2022-07-11T14:23:58;24.10;89.40
41668;DHT22;27356;50.920;5.350;2022-07-11T14:26:24;24.20;88.90
41668;DHT22;27356;50.920;5.350;2022-07-11T14:28:50;24.30;89.10
41668;DHT22;27356;50.920;5.350;2022-07-11T14:31:15;24.60;88.50
41668;DHT22;27356;50.920;5.350;2022-07-11T14:33:41;24.80;89.20
41668;DHT22;27356;50.920;5.350;2022-07-11T14:36:07;24.90;86.50
41668;DHT22;27356;50.920;5.350;2022-07-11T14:38:32;24.90;87.20
41668;DHT22;27356;50.920;5.350;2022-07-11T14:40:59;25.00;87.00
41668;DHT22;27356;50.920;5.350;2022-07-11T14:43:24;25.10;86.70
41668;DHT22;27356;50.920;5.350;2022-07-11T14:45:50;25.00;86.10
41668;DHT22;27356;50.920;5.350;2022-07-11T14:48:15;25.00;87.20
41668;DHT22;27356;50.920;5.350;2022-07-11T14:50:41;25.30;86.90
41668;DHT22;27356;50.920;5.350;2022-07-11T14:53:06;25.30;86.90
41668;DHT22;27356;50.920;5.350;2022-07-11T14:55:32;25.30;86.90
41668;DHT22;27356;50.920;5.350;2022-07-11T14:57:58;25.00;87.60
41668;DHT22;27356;50.920;5.350;2022-07-11T15:00:23;25.10;87.50
41668;DHT22;27356;50.920;5.350;2022-07-11T15:02:49;25.40;86.40
41668;DHT22;27356;50.920;5.350;2022-07-11T15:05:33;25.50;85.50
41668;DHT22;27356;50.920;5.350;2022-07-11T15:07:58;25.40;85.70
41668;DHT22;27356;50.920;5.350;2022-07-11T15:10:43;25.10;86.80
41668;DHT22;27356;50.920;5.350;2022-07-11T15:13:27;25.10;87.60
41668;DHT22;27356;50.920;5.350;2022-07-11T15:15:53;25.20;87.30
41668;DHT22;27356;50.920;5.350;2022-07-11T15:18:18;25.50;87.00
41668;DHT22;27356;50.920;5.350;2022-07-11T15:20:44;25.70;86.50
41668;DHT22;27356;50.920;5.350;2022-07-11T15:23:09;25.40;87.40
41668;DHT22;27356;50.920;5.350;2022-07-11T15:25:35;25.40;86.40
41668;DHT22;27356;50.920;5.350;2022-07-11T15:28:01;25.40;86.20
41668;DHT22;27356;50.920;5.350;2022-07-11T15:30:27;25.50;86.40
41668;DHT22;27356;50.920;5.350;2022-07-11T15:32:52;25.50;85.80
41668;DHT22;27356;50.920;5.350;2022-07-11T15:35:18;25.60;86.40
41668;DHT22;27356;50.920;5.350;2022-07-11T15:37:43;25.70;85.20
41668;DHT22;27356;50.920;5.350;2022-07-11T15:40:09;25.40;85.80
41668;DHT22;27356;50.920;5.350;2022-07-11T15:42:35;25.30;86.10
41668;DHT22;27356;50.920;5.350;2022-07-11T15:45:00;25.00;87.00
41668;DHT22;27356;50.920;5.350;2022-07-11T15:47:26;25.00;87.30
41668;DHT22;27356;50.920;5.350;2022-07-11T15:49:51;25.00;88.00
41668;DHT22;27356;50.920;5.350;2022-07-11T15:52:17;25.10;86.90
41668;DHT22;27356;50.920;5.350;2022-07-11T15:54:42;25.10;87.10
41668;DHT22;27356;50.920;5.350;2022-07-11T15:57:08;25.10;86.80
41668;DHT22;27356;50.920;5.350;2022-07-11T15:59:33;25.10;87.00